createdAt,value
2018-03-08T00:03:22.389Z,97.80
2018-03-08T00:05:49.834Z,97.60
2018-03-08T00:08:17.265Z,96.70
2018-03-08T00:10:45.477Z,97.20
2018-03-08T00:13:12.953Z,97.20
2018-03-08T00:15:40.356Z,96.80
2018-03-08T00:18:08.544Z,96.80
2018-03-08T00:20:35.985Z,96.70
2018-03-08T00:23:04.188Z,96.70
2018-03-08T00:25:31.650Z,96.70
2018-03-08T00:27:59.058Z,95.80
2018-03-08T00:30:26.508Z,96.60
2018-03-08T00:32:53.940Z,96.20
2018-03-08T00:35:21.415Z,96.30
2018-03-08T00:37:48.829Z,96.40
2018-03-08T00:40:16.261Z,96.10
2018-03-08T00:42:44.455Z,96.60
2018-03-08T00:45:11.892Z,96.60
2018-03-08T00:47:40.100Z,96.50
2018-03-08T00:50:07.536Z,96.50
2018-03-08T00:52:34.978Z,96.50
2018-03-08T00:55:03.432Z,96.00
2018-03-08T00:57:30.852Z,96.00
2018-03-08T00:59:58.284Z,96.20
2018-03-08T01:02:25.760Z,96.30
2018-03-08T01:04:53.195Z,96.10
2018-03-08T01:07:21.381Z,95.90
2018-03-08T01:09:48.813Z,95.90
2018-03-08T01:12:16.242Z,96.30
2018-03-08T01:14:44.435Z,96.80
2018-03-08T01:17:11.878Z,96.70
2018-03-08T01:19:39.302Z,96.50
2018-03-08T01:22:06.740Z,97.30
2018-03-08T01:24:34.173Z,96.90
2018-03-08T01:27:02.377Z,97.00
2018-03-08T01:29:29.817Z,97.00
2018-03-08T01:34:30.981Z,96.50
2018-03-08T01:36:59.173Z,97.90
2018-03-08T01:39:26.614Z,97.90
2018-03-08T01:41:54.804Z,97.70
2018-03-08T01:44:22.237Z,97.70
2018-03-08T01:46:50.451Z,98.20
2018-03-08T01:49:18.798Z,98.20
2018-03-08T01:51:58.726Z,98.30
2018-03-08T01:54:26.165Z,98.30
2018-03-08T01:56:53.636Z,98.00
2018-03-08T01:59:21.023Z,98.80
2018-03-08T02:01:48.449Z,98.40
2018-03-08T02:04:15.893Z,98.10
2018-03-08T02:06:43.319Z,97.80
2018-03-08T02:09:11.686Z,98.10
2018-03-08T02:11:39.127Z,97.90
2018-03-08T02:14:07.316Z,97.70
2018-03-08T02:16:34.737Z,97.50
2018-03-08T02:19:02.177Z,97.60
2018-03-08T02:21:29.600Z,97.50
2018-03-08T02:23:57.045Z,96.90
2018-03-08T02:28:59.241Z,97.40
2018-03-08T02:31:26.669Z,97.30
2018-03-08T02:33:54.856Z,98.10
2018-03-08T02:36:22.293Z,98.10
2018-03-08T02:38:49.712Z,98.00
2018-03-08T02:41:17.175Z,98.10
2018-03-08T02:43:44.603Z,97.80
2018-03-08T02:46:12.033Z,97.30
2018-03-08T02:48:40.228Z,96.90
2018-03-08T02:51:07.696Z,96.90
2018-03-08T02:53:35.126Z,96.20
2018-03-08T02:56:03.322Z,96.20
2018-03-08T02:58:30.889Z,96.20
2018-03-08T03:00:58.318Z,95.70
2018-03-08T03:03:25.744Z,95.60
2018-03-08T03:05:53.184Z,95.80
2018-03-08T03:08:21.414Z,96.60
2018-03-08T03:10:48.842Z,96.50
2018-03-08T03:13:16.270Z,96.40
2018-03-08T03:15:43.700Z,96.50
2018-03-08T03:18:11.142Z,96.70
2018-03-08T03:20:38.572Z,96.60
2018-03-08T03:23:05.991Z,96.50
2018-03-08T03:25:33.421Z,96.30
2018-03-08T03:28:00.869Z,96.60
2018-03-08T03:30:28.311Z,96.60
2018-03-08T03:32:56.509Z,96.40
2018-03-08T03:35:23.947Z,96.30
2018-03-08T03:37:52.131Z,96.10
2018-03-08T03:40:21.257Z,96.30
2018-03-08T03:42:48.688Z,96.30
2018-03-08T03:45:16.112Z,96.30
2018-03-08T03:47:43.545Z,95.90
2018-03-08T03:50:10.989Z,95.50
2018-03-08T03:52:38.410Z,94.90
2018-03-08T03:55:06.621Z,95.50
2018-03-08T03:57:34.027Z,95.50
2018-03-08T04:00:02.230Z,95.80
2018-03-08T04:02:29.652Z,95.80
2018-03-08T04:04:57.098Z,95.60
2018-03-08T04:07:24.540Z,95.60
2018-03-08T04:09:52.745Z,95.40
2018-03-08T04:12:20.788Z,95.40
2018-03-08T04:14:48.230Z,95.60
2018-03-08T04:17:16.054Z,96.00
2018-03-08T04:19:43.462Z,95.80
2018-03-08T04:22:10.901Z,95.90
2018-03-08T04:24:39.088Z,95.10
2018-03-08T04:27:06.522Z,95.10
2018-03-08T04:29:33.944Z,95.50
2018-03-08T04:32:02.138Z,95.40
2018-03-08T04:34:29.573Z,95.30
2018-03-08T04:36:57.000Z,94.70
2018-03-08T04:39:24.439Z,94.90
2018-03-08T04:41:51.868Z,94.40
2018-03-08T04:44:19.302Z,95.00
2018-03-08T04:46:46.736Z,94.40
2018-03-08T04:49:14.164Z,94.80
2018-03-08T04:51:41.589Z,94.40
2018-03-08T04:54:09.788Z,94.00
2018-03-08T04:56:37.217Z,93.90
2018-03-08T04:59:05.460Z,93.80
2018-03-08T05:01:32.890Z,93.80
2018-03-08T05:04:00.373Z,94.20
2018-03-08T05:06:27.817Z,93.70
2018-03-08T05:08:55.253Z,94.00
2018-03-08T05:11:22.668Z,94.10
2018-03-08T05:13:50.864Z,94.40
2018-03-08T05:16:18.613Z,94.10
2018-03-08T05:18:46.833Z,94.50
2018-03-08T05:21:14.253Z,94.50
2018-03-08T05:23:42.506Z,94.30
2018-03-08T05:26:09.893Z,94.30
2018-03-08T05:28:37.341Z,93.80
2018-03-08T05:31:05.538Z,93.70
2018-03-08T05:33:33.007Z,93.60
2018-03-08T05:36:00.425Z,94.30
2018-03-08T05:38:28.639Z,94.60
2018-03-08T05:40:56.060Z,94.60
2018-03-08T05:43:24.257Z,94.90
2018-03-08T05:45:51.693Z,94.90
2018-03-08T05:48:20.813Z,94.50
2018-03-08T05:50:48.255Z,94.50
2018-03-08T05:53:16.438Z,94.50
2018-03-08T05:55:43.881Z,94.50
2018-03-08T05:58:12.079Z,95.10
2018-03-08T06:00:39.512Z,95.10
2018-03-08T06:03:07.721Z,94.90
2018-03-08T06:05:35.141Z,94.90
2018-03-08T06:08:03.336Z,94.60
2018-03-08T06:10:30.793Z,94.60
2018-03-08T06:12:58.779Z,94.70
2018-03-08T06:15:26.198Z,94.80
2018-03-08T06:17:54.413Z,94.70
2018-03-08T06:20:21.840Z,94.70
2018-03-08T06:22:50.033Z,94.80
2018-03-08T06:25:17.454Z,94.70
2018-03-08T06:27:45.711Z,94.90
2018-03-08T06:30:13.140Z,94.50
2018-03-08T06:32:40.574Z,94.60
2018-03-08T06:35:07.999Z,94.60
2018-03-08T06:37:35.485Z,94.80
2018-03-08T06:40:02.956Z,94.80
2018-03-08T06:42:30.401Z,94.70
2018-03-08T06:44:58.589Z,94.90
2018-03-08T06:47:26.039Z,94.80
2018-03-08T06:49:54.220Z,94.80
2018-03-08T06:52:21.650Z,94.80
2018-03-08T06:54:49.851Z,94.00
2018-03-08T06:57:17.264Z,93.90
2018-03-08T06:59:44.702Z,93.30
2018-03-08T07:02:12.133Z,93.30
2018-03-08T07:04:39.574Z,93.00
2018-03-08T07:07:07.014Z,92.80
2018-03-08T07:09:35.393Z,92.80
2018-03-08T07:12:03.586Z,91.60
2018-03-08T07:14:31.015Z,91.50
2018-03-08T07:16:59.215Z,89.90
2018-03-08T07:19:26.645Z,89.80
2018-03-08T07:21:54.158Z,90.60
2018-03-08T07:24:21.641Z,89.30
2018-03-08T07:26:49.052Z,89.50
2018-03-08T07:29:16.528Z,88.70
2018-03-08T07:31:43.984Z,87.70
2018-03-08T07:34:11.416Z,86.10
2018-03-08T07:36:38.850Z,86.60
2018-03-08T07:39:06.310Z,84.10
2018-03-08T07:41:33.728Z,83.30
2018-03-08T07:44:01.190Z,82.70
2018-03-08T07:46:28.625Z,82.20
2018-03-08T07:48:56.076Z,81.70
2018-03-08T07:51:23.500Z,80.50
2018-03-08T07:53:51.722Z,81.00
2018-03-08T07:56:19.210Z,81.00
2018-03-08T07:58:47.465Z,81.90
2018-03-08T08:01:14.943Z,81.80
2018-03-08T08:03:42.386Z,84.70
2018-03-08T08:06:21.917Z,85.50
2018-03-08T08:09:01.334Z,85.30
2018-03-08T08:11:28.826Z,86.10
2018-03-08T08:13:56.333Z,83.40
2018-03-08T08:16:24.536Z,80.30
2018-03-08T08:18:51.970Z,80.20
2018-03-08T08:21:19.405Z,79.30
2018-03-08T08:23:47.632Z,78.50
2018-03-08T08:26:15.103Z,78.50
2018-03-08T08:28:42.543Z,80.00
2018-03-08T08:31:09.980Z,81.40
2018-03-08T08:33:37.410Z,80.80
2018-03-08T08:36:04.857Z,80.90
2018-03-08T08:38:32.276Z,80.30
2018-03-08T08:40:59.715Z,80.40
2018-03-08T08:43:27.153Z,78.70
2018-03-08T08:45:55.363Z,77.90
2018-03-08T08:48:22.799Z,77.80
2018-03-08T08:50:51.000Z,79.90
2018-03-08T08:53:18.434Z,79.90
2018-03-08T08:55:45.906Z,80.00
2018-03-08T08:58:13.329Z,80.00
2018-03-08T09:00:41.532Z,77.20
2018-03-08T09:03:08.948Z,77.00
2018-03-08T09:05:37.184Z,75.20
2018-03-08T09:08:04.644Z,74.30
2018-03-08T09:10:32.104Z,72.80
2018-03-08T09:12:59.574Z,69.10
2018-03-08T09:15:27.000Z,64.80
2018-03-08T09:17:54.429Z,63.70
2018-03-08T09:20:22.633Z,59.70
2018-03-08T09:22:50.083Z,59.70
2018-03-08T09:25:17.532Z,59.90
2018-03-08T09:27:45.753Z,59.30
2018-03-08T09:30:13.164Z,59.20
2018-03-08T09:32:40.599Z,57.70
2018-03-08T09:35:08.813Z,58.50
2018-03-08T09:37:36.226Z,58.50
2018-03-08T09:40:04.521Z,60.80
2018-03-08T09:42:32.738Z,59.70
2018-03-08T09:45:00.179Z,59.60
2018-03-08T09:47:27.632Z,58.30
2018-03-08T09:49:55.080Z,55.30
2018-03-08T09:52:22.518Z,53.30
2018-03-08T09:54:50.716Z,57.80
2018-03-08T09:57:18.157Z,57.80
2018-03-08T09:59:46.366Z,63.30
2018-03-08T10:02:13.836Z,63.30
2018-03-08T10:04:41.270Z,66.30
2018-03-08T10:07:08.714Z,67.20
2018-03-08T10:09:36.906Z,70.60
2018-03-08T10:12:04.349Z,70.40
2018-03-08T10:14:31.786Z,74.30
2018-03-08T10:16:59.984Z,75.60
2018-03-08T10:19:27.470Z,75.60
2018-03-08T10:21:54.938Z,74.00
2018-03-08T10:24:22.414Z,72.10
2018-03-08T10:26:49.836Z,71.30
2018-03-08T10:29:17.306Z,71.80
2018-03-08T10:31:44.754Z,70.40
2018-03-08T10:34:12.203Z,70.10
2018-03-08T10:36:39.639Z,69.40
2018-03-08T10:44:02.713Z,65.90
2018-03-08T10:46:30.945Z,64.00
2018-03-08T10:51:25.816Z,63.30
2018-03-08T10:53:53.257Z,64.20
2018-03-08T10:56:22.393Z,67.00
2018-03-08T10:58:49.805Z,67.00
2018-03-08T11:01:25.141Z,69.50
2018-03-08T11:03:55.526Z,69.50
2018-03-08T11:06:28.737Z,71.90
2018-03-08T11:08:56.174Z,75.30
2018-03-08T11:11:23.611Z,75.80
2018-03-08T11:13:51.063Z,74.70
2018-03-08T11:16:18.640Z,75.70
2018-03-08T11:18:46.073Z,75.00
2018-03-08T11:21:14.379Z,74.80
2018-03-08T11:23:41.806Z,74.60
2018-03-08T11:26:09.993Z,74.30
2018-03-08T11:28:37.446Z,74.20
2018-03-08T11:31:04.882Z,74.40
2018-03-08T11:33:32.486Z,74.40
2018-03-08T11:38:32.848Z,73.00
2018-03-08T11:41:01.749Z,71.50
2018-03-08T11:43:27.748Z,71.80
2018-03-08T11:45:55.168Z,72.70
2018-03-08T11:48:23.401Z,73.40
2018-03-08T11:50:50.837Z,73.40
2018-03-08T11:53:18.275Z,74.70
2018-03-08T11:55:46.463Z,74.00
2018-03-08T11:58:13.927Z,73.90
2018-03-08T12:00:41.393Z,75.00
2018-03-08T12:03:08.833Z,75.20
2018-03-08T12:05:37.021Z,74.90
2018-03-08T12:08:04.458Z,74.90
2018-03-08T12:10:31.898Z,75.30
2018-03-08T12:13:00.084Z,74.20
2018-03-08T12:15:27.536Z,74.20
2018-03-08T12:17:55.044Z,74.80
2018-03-08T12:20:23.192Z,74.90
2018-03-08T12:22:50.675Z,74.60
2018-03-08T12:25:18.088Z,75.10
2018-03-08T12:27:46.287Z,74.80
2018-03-08T12:30:13.734Z,74.80
2018-03-08T12:32:41.166Z,74.70
2018-03-08T12:35:09.397Z,76.00
2018-03-08T12:37:36.848Z,76.00
2018-03-08T12:40:04.273Z,74.30
2018-03-08T12:42:31.776Z,72.80
2018-03-08T12:44:59.188Z,72.80
2018-03-08T12:47:26.645Z,73.20
2018-03-08T12:49:54.089Z,73.30
2018-03-08T12:52:21.909Z,74.60
2018-03-08T12:54:49.344Z,75.20
2018-03-08T12:57:16.827Z,76.40
2018-03-08T12:59:44.258Z,78.00
2018-03-08T13:02:11.689Z,78.20
2018-03-08T13:04:39.897Z,81.60
2018-03-08T13:07:07.324Z,81.70
2018-03-08T13:09:34.825Z,85.60
2018-03-08T13:12:02.244Z,87.60
2018-03-08T13:14:29.697Z,87.10
2018-03-08T13:16:57.890Z,89.70
2018-03-08T13:19:25.352Z,89.70
2018-03-08T13:21:52.808Z,90.50
2018-03-08T13:24:20.242Z,90.40
2018-03-08T13:26:47.737Z,90.90
2018-03-08T13:29:15.173Z,90.80
2018-03-08T13:31:42.670Z,91.60
2018-03-08T13:34:10.129Z,91.00
2018-03-08T13:39:10.645Z,91.90
2018-03-08T13:41:38.112Z,92.30
2018-03-08T13:44:05.570Z,91.80
2018-03-08T13:46:33.028Z,92.70
2018-03-08T13:51:56.073Z,92.90
2018-03-08T13:54:23.565Z,92.80
2018-03-08T13:56:50.961Z,93.50
2018-03-08T13:59:18.405Z,94.10
2018-03-08T14:01:45.855Z,93.20
2018-03-08T14:04:13.284Z,93.00
2018-03-08T14:06:40.718Z,93.00
2018-03-08T14:09:08.158Z,93.50
2018-03-08T14:11:36.353Z,93.80
2018-03-08T14:14:03.788Z,93.70
2018-03-08T14:16:31.982Z,94.20
2018-03-08T14:18:59.421Z,94.20
2018-03-08T14:21:27.625Z,93.80
2018-03-08T14:23:55.056Z,93.80
2018-03-08T14:26:23.289Z,94.20
2018-03-08T14:28:50.734Z,94.20
2018-03-08T14:31:18.197Z,94.00
2018-03-08T14:33:45.827Z,94.40
2018-03-08T14:36:13.327Z,94.20
2018-03-08T14:38:41.374Z,95.10
2018-03-08T14:41:08.823Z,95.60
2018-03-08T14:43:36.254Z,96.10
2018-03-08T14:46:04.450Z,95.90
2018-03-08T14:48:31.872Z,95.90
2018-03-08T14:50:59.314Z,97.20
2018-03-08T14:53:26.741Z,98.10
2018-03-08T14:55:54.203Z,97.60
2018-03-08T14:58:22.182Z,98.40
2018-03-08T15:00:49.627Z,97.80
2018-03-08T15:03:17.063Z,98.00
2018-03-08T15:05:44.480Z,97.40
2018-03-08T15:08:11.913Z,97.40
2018-03-08T15:10:39.346Z,97.50
2018-03-08T15:13:06.777Z,97.20
2018-03-08T15:15:34.213Z,97.60
2018-03-08T15:18:01.746Z,98.00
2018-03-08T15:20:29.185Z,97.70
2018-03-08T15:22:56.653Z,97.50
2018-03-08T15:25:24.097Z,96.90
2018-03-08T15:27:52.521Z,96.80
2018-03-08T15:30:19.965Z,96.60
2018-03-08T15:32:47.403Z,96.20
2018-03-08T15:35:14.829Z,96.50
2018-03-08T15:37:42.270Z,96.30
2018-03-08T15:40:10.477Z,96.30
2018-03-08T15:42:37.905Z,96.30
2018-03-08T15:45:06.112Z,95.80
2018-03-08T15:47:33.546Z,95.80
2018-03-08T15:50:01.754Z,95.80
2018-03-08T15:52:29.190Z,95.80
2018-03-08T15:54:57.381Z,95.90
2018-03-08T15:57:24.804Z,95.90
2018-03-08T15:59:52.271Z,95.70
2018-03-08T16:02:25.328Z,96.30
2018-03-08T16:04:53.571Z,95.60
2018-03-08T16:07:32.829Z,95.90
2018-03-08T16:12:56.520Z,96.00
2018-03-08T16:15:23.956Z,96.50
2018-03-08T16:17:51.397Z,97.00
2018-03-08T16:20:18.861Z,96.70
2018-03-08T16:22:46.278Z,97.10
2018-03-08T16:25:14.502Z,97.40
2018-03-08T16:27:41.927Z,97.40
2018-03-08T16:30:09.407Z,96.70
2018-03-08T16:32:36.826Z,96.70
2018-03-08T16:35:05.071Z,96.00
2018-03-08T16:37:32.529Z,96.00
2018-03-08T16:39:59.959Z,95.50
2018-03-08T16:42:27.431Z,96.40
2018-03-08T16:44:54.852Z,96.50
2018-03-08T16:47:22.551Z,95.90
2018-03-08T16:49:49.993Z,96.30
2018-03-08T16:52:17.425Z,96.10
2018-03-08T16:54:44.886Z,94.80
2018-03-08T16:57:12.389Z,95.20
2018-03-08T16:59:39.829Z,94.70
2018-03-08T17:02:07.274Z,94.10
2018-03-08T17:04:34.804Z,94.10
2018-03-08T17:07:02.922Z,95.00
2018-03-08T17:09:30.312Z,95.00
2018-03-08T17:11:57.874Z,95.10
2018-03-08T17:14:25.320Z,94.50
2018-03-08T17:16:52.749Z,95.20
2018-03-08T17:19:20.219Z,95.00
2018-03-08T17:21:47.656Z,94.40
2018-03-08T17:24:15.125Z,93.50
2018-03-08T17:26:42.979Z,94.20
2018-03-08T17:29:10.452Z,93.40
2018-03-08T17:31:37.894Z,93.30
2018-03-08T17:34:05.360Z,94.10
2018-03-08T17:36:32.833Z,95.00
2018-03-08T17:39:00.265Z,95.20
2018-03-08T17:41:27.725Z,95.20
2018-03-08T17:43:55.192Z,94.80
2018-03-08T17:46:22.666Z,94.90
2018-03-08T17:48:50.102Z,94.70
2018-03-08T17:51:17.529Z,94.60
2018-03-08T17:53:44.979Z,94.40
2018-03-08T17:56:13.184Z,94.30
2018-03-08T17:58:40.644Z,94.30
2018-03-08T18:01:08.086Z,94.40
2018-03-08T18:03:35.558Z,94.10
2018-03-08T18:06:02.989Z,94.40
2018-03-08T18:08:31.209Z,94.30
2018-03-08T18:10:58.671Z,94.30
2018-03-08T18:13:26.092Z,94.20
2018-03-08T18:15:53.539Z,94.20
2018-03-08T18:18:22.645Z,93.90
2018-03-08T18:20:50.072Z,93.90
2018-03-08T18:23:18.275Z,94.00
2018-03-08T18:25:45.761Z,94.00
2018-03-08T18:28:13.928Z,94.30
2018-03-08T18:30:41.351Z,94.40
2018-03-08T18:33:09.548Z,94.30
2018-03-08T18:35:36.968Z,94.30
2018-03-08T18:38:05.173Z,94.20
2018-03-08T18:40:32.606Z,94.20
2018-03-08T18:43:00.809Z,94.40
2018-03-08T18:45:28.224Z,94.30
2018-03-08T18:47:55.660Z,94.50
2018-03-08T18:50:23.161Z,94.50
2018-03-08T18:52:50.543Z,94.50
2018-03-08T18:55:17.985Z,94.90
2018-03-08T18:57:46.181Z,96.90
2018-03-08T19:00:13.596Z,96.90
2018-03-08T19:02:42.444Z,96.90
2018-03-08T19:05:09.922Z,96.80
2018-03-08T19:07:37.332Z,97.80
2018-03-08T19:10:04.773Z,97.30
2018-03-08T19:12:32.956Z,97.30
2018-03-08T19:15:00.393Z,97.30
2018-03-08T19:17:28.584Z,97.10
2018-03-08T19:19:56.702Z,97.00
2018-03-08T19:22:24.133Z,97.30
2018-03-08T19:24:51.560Z,97.50
2018-03-08T19:27:19.739Z,96.30
2018-03-08T19:29:47.173Z,96.20
2018-03-08T19:32:14.630Z,96.20
2018-03-08T19:34:43.580Z,95.40
2018-03-08T19:37:11.051Z,95.40
2018-03-08T19:39:38.751Z,96.10
2018-03-08T19:42:06.183Z,96.00
2018-03-08T19:44:33.731Z,95.50
2018-03-08T19:47:01.171Z,95.30
2018-03-08T19:49:28.598Z,95.50
2018-03-08T19:51:56.793Z,95.70
2018-03-08T19:54:24.256Z,95.70
2018-03-08T19:56:51.673Z,95.60
2018-03-08T19:59:19.875Z,95.80
2018-03-08T20:01:47.311Z,95.50
2018-03-08T20:04:15.510Z,95.80
2018-03-08T20:06:43.050Z,95.80
2018-03-08T20:09:11.294Z,96.30
2018-03-08T20:11:38.722Z,96.30
2018-03-08T20:14:06.195Z,96.00
2018-03-08T20:16:33.616Z,95.50
2018-03-08T20:19:01.070Z,95.30
2018-03-08T20:21:29.302Z,95.50
2018-03-08T20:23:56.731Z,95.40
2018-03-08T20:26:24.165Z,95.60
2018-03-08T20:28:52.383Z,95.80
2018-03-08T20:31:19.857Z,96.10
2018-03-08T20:33:47.286Z,96.00
2018-03-08T20:36:14.751Z,95.40
2018-03-08T20:38:42.222Z,95.90
2018-03-08T20:41:09.644Z,96.40
2018-03-08T20:43:37.090Z,96.20
2018-03-08T20:46:05.280Z,96.20
2018-03-08T20:48:32.717Z,96.20
2018-03-08T20:51:00.140Z,96.50
2018-03-08T20:53:27.570Z,96.70
2018-03-08T20:55:55.008Z,96.40
2018-03-08T20:58:23.772Z,97.30
2018-03-08T21:00:51.196Z,97.20
2018-03-08T21:03:18.615Z,96.80
2018-03-08T21:05:46.166Z,96.40
2018-03-08T21:08:13.598Z,96.00
2018-03-08T21:10:41.901Z,96.20
2018-03-08T21:13:09.311Z,96.20
2018-03-08T21:15:36.741Z,96.70
2018-03-08T21:18:04.167Z,97.10
2018-03-08T21:20:31.653Z,96.40
2018-03-08T21:22:59.075Z,96.00
2018-03-08T21:25:26.563Z,95.90
2018-03-08T21:27:53.996Z,96.40
2018-03-08T21:30:21.448Z,96.50
2018-03-08T21:32:48.869Z,96.50
2018-03-08T21:35:16.295Z,96.20
2018-03-08T21:37:43.741Z,96.50
2018-03-08T21:40:11.170Z,96.00
2018-03-08T21:42:38.597Z,96.20
2018-03-08T21:45:06.039Z,96.20
2018-03-08T21:47:33.477Z,95.90
2018-03-08T21:50:00.949Z,95.90
2018-03-08T21:52:28.401Z,96.20
2018-03-08T21:54:55.840Z,96.10
2018-03-08T21:57:23.310Z,96.00
2018-03-08T21:59:50.743Z,96.00
2018-03-08T22:02:18.222Z,96.00
2018-03-08T22:04:45.950Z,95.80
2018-03-08T22:07:13.389Z,95.80
2018-03-08T22:09:41.582Z,95.60
2018-03-08T22:12:09.026Z,95.50
2018-03-08T22:14:37.222Z,95.10
2018-03-08T22:17:04.644Z,95.10
2018-03-08T22:19:32.845Z,94.50
2018-03-08T22:22:00.281Z,94.40
2018-03-08T22:24:28.501Z,94.30
2018-03-08T22:26:55.923Z,94.30
2018-03-08T22:29:24.100Z,94.30
2018-03-08T22:31:52.299Z,94.00
2018-03-08T22:34:19.746Z,94.00
2018-03-08T22:36:47.931Z,94.30
2018-03-08T22:39:15.361Z,94.30
2018-03-08T22:41:43.568Z,94.30
2018-03-08T22:44:10.986Z,94.30
2018-03-08T22:46:38.485Z,93.70
2018-03-08T22:49:05.998Z,93.80
2018-03-08T22:51:33.432Z,94.00
2018-03-08T22:54:00.909Z,93.90
2018-03-08T22:56:28.342Z,94.00
2018-03-08T22:58:55.768Z,93.80
2018-03-08T23:04:22.941Z,93.30
2018-03-08T23:06:50.374Z,93.80
2018-03-08T23:09:18.589Z,93.90
2018-03-08T23:11:46.021Z,94.30
2018-03-08T23:14:13.449Z,93.40
2018-03-08T23:16:41.667Z,93.80
2018-03-08T23:19:09.092Z,93.50
2018-03-08T23:21:37.364Z,93.80
2018-03-08T23:24:05.579Z,93.70
2018-03-08T23:26:33.013Z,93.70
2018-03-08T23:29:00.436Z,93.50
2018-03-08T23:31:27.865Z,93.80
2018-03-08T23:33:55.342Z,94.10
2018-03-08T23:36:23.440Z,94.20
2018-03-08T23:38:50.878Z,94.40
2018-03-08T23:41:18.312Z,94.30
2018-03-08T23:43:45.786Z,94.10
2018-03-08T23:46:13.201Z,94.20
2018-03-08T23:48:40.659Z,94.30
2018-03-08T23:51:08.097Z,94.20
2018-03-08T23:53:36.323Z,94.60
2018-03-08T23:56:03.770Z,94.60
2018-03-08T23:58:31.205Z,94.70
